This is the latest recevied weather packets stored in our database for station/object N2XP. If no packets are shown the sender has not sent any weather packets the latest 1 day(s).
| Time | Temp. | Humidity | Pressure | Rain* | Wind** | Luminosity | Snow |
|---|---|---|---|---|---|---|---|
| 1836274684 | 16.11° C | 76% | 1017.4 hPa | 0 mm | 0 m/s | - | - |
| 1778035540 | 19.44° C | 64% | 1007.6 hPa | 0 mm | 0 m/s | - | - |
| 1778034660 | 20° C | 61% | 1007.6 hPa | 0 mm | 0 m/s | - | - |
| 1778033739 | 20.56° C | 59% | 1007.5 hPa | 0 mm | 0 m/s | - | - |
| 1778032899 | 20.56° C | 57% | 1007.3 hPa | 0 mm | 0.45 m/s, 198° | - | - |
| 1778031938 | 21.11° C | 57% | 1007.2 hPa | 0 mm | 0 m/s | - | - |
| 1778031040 | 21.11° C | 55% | 1007.2 hPa | 0 mm | 0 m/s | - | - |
| 1778030135 | 21.11° C | 55% | 1007.1 hPa | 0 mm | 0 m/s | - | - |
| 1778029238 | 21.67° C | 54% | 1006.8 hPa | 0 mm | 0 m/s | - | - |
| 1778028356 | 21.67° C | 52% | 1006.8 hPa | 0 mm | 0 m/s | - | - |
| 1778027444 | 21.67° C | 49% | 1006.6 hPa | 0 mm | 0 m/s | - | - |
| 1778026535 | 22.22° C | 48% | 1006.5 hPa | 0 mm | 0.45 m/s, 203° | - | - |
| 1778025631 | 22.22° C | 47% | 1006.3 hPa | 0 mm | 0 m/s | - | - |
| 1778024751 | 22.78° C | 45% | 1006.2 hPa | 0 mm | 0.45 m/s, 217° | - | - |
| 1778023834 | 23.33° C | 45% | 1006.2 hPa | 0 mm | 0.45 m/s, 204° | - | - |
| 1778022933 | 23.89° C | 43% | 1006 hPa | 0 mm | 0.45 m/s, 218° | - | - |
| 1778022037 | 24.44° C | 41% | 1006 hPa | 0 mm | 0.89 m/s, 182° | - | - |
| 1778021186 | 24.44° C | 41% | 1005.8 hPa | 0 mm | 0.89 m/s, 200° | - | - |
| 1778020226 | 24.44° C | 40% | 1005.6 hPa | 0 mm | 0.45 m/s, 203° | - | - |
| 1778019322 | 25° C | 39% | 1005.7 hPa | 0 mm | 1.79 m/s, 205° | - | - |
| 1778018429 | 25.56° C | 39% | 1005.5 hPa | 0 mm | 2.68 m/s, 189° | - | - |
| 1778017524 | 25.56° C | 38% | 1005.5 hPa | 0 mm | 2.24 m/s, 167° | - | - |
| 1778016620 | 25° C | 38% | 1005.4 hPa | 0 mm | 0.89 m/s, 226° | - | - |
| 1778015719 | 25.56° C | 39% | 1005.3 hPa | 0 mm | 0.89 m/s, 233° | - | - |
| 1778014818 | 26.11° C | 37% | 1005 hPa | 0 mm | 0.89 m/s, 223° | - | - |
* Rain latest hour (hover to see other rain measurements)
** Current wind speed in m/s (hover to see current wind gust speed)